sensor_id;sensor_type;location;lat;lon;timestamp;pressure;altitude;pressure_sealevel;temperature;humidity
5522;BME280;2783;48.730;8.006;2023-05-14T00:01:16;100095.31;;;13.98;96.85
5522;BME280;2783;48.730;8.006;2023-05-14T00:03:41;100090.88;;;13.97;97.27
5522;BME280;2783;48.730;8.006;2023-05-14T00:06:06;100090.03;;;13.97;97.81
5522;BME280;2783;48.730;8.006;2023-05-14T00:08:33;100091.91;;;13.95;97.91
5522;BME280;2783;48.730;8.006;2023-05-14T00:10:58;100086.72;;;13.92;98.13
5522;BME280;2783;48.730;8.006;2023-05-14T00:13:24;100085.84;;;13.91;98.07
5522;BME280;2783;48.730;8.006;2023-05-14T00:15:49;100086.81;;;13.89;97.75
5522;BME280;2783;48.730;8.006;2023-05-14T00:18:14;100080.69;;;13.87;97.60
5522;BME280;2783;48.730;8.006;2023-05-14T00:20:40;100081.75;;;13.83;98.06
5522;BME280;2783;48.730;8.006;2023-05-14T00:23:05;100080.19;;;13.79;98.32
5522;BME280;2783;48.730;8.006;2023-05-14T00:25:30;100073.94;;;13.78;97.97
5522;BME280;2783;48.730;8.006;2023-05-14T00:27:56;100074.94;;;13.76;97.85
5522;BME280;2783;48.730;8.006;2023-05-14T00:30:21;100069.81;;;13.71;97.98
5522;BME280;2783;48.730;8.006;2023-05-14T00:32:46;100071.75;;;13.68;98.06
5522;BME280;2783;48.730;8.006;2023-05-14T00:35:11;100063.72;;;13.68;98.78
5522;BME280;2783;48.730;8.006;2023-05-14T00:37:37;100055.84;;;13.65;98.21
5522;BME280;2783;48.730;8.006;2023-05-14T00:40:03;100055.97;;;13.62;98.32
5522;BME280;2783;48.730;8.006;2023-05-14T00:42:30;100058.66;;;13.62;98.76
5522;BME280;2783;48.730;8.006;2023-05-14T00:44:56;100052.66;;;13.57;98.41
5522;BME280;2783;48.730;8.006;2023-05-14T00:47:21;100056.31;;;13.54;98.84
5522;BME280;2783;48.730;8.006;2023-05-14T00:49:46;100053.63;;;13.54;99.14
5522;BME280;2783;48.730;8.006;2023-05-14T00:52:11;100058.28;;;13.51;99.12
5522;BME280;2783;48.730;8.006;2023-05-14T00:54:37;100051.31;;;13.47;99.21
5522;BME280;2783;48.730;8.006;2023-05-14T00:57:03;100058.66;;;13.42;99.42
5522;BME280;2783;48.730;8.006;2023-05-14T00:59:29;100058.78;;;13.39;99.41
5522;BME280;2783;48.730;8.006;2023-05-14T01:01:54;100057.91;;;13.38;99.01
5522;BME280;2783;48.730;8.006;2023-05-14T01:04:19;100055.44;;;13.34;99.26
5522;BME280;2783;48.730;8.006;2023-05-14T01:09:48;100053.06;;;13.28;100.00
5522;BME280;2783;48.730;8.006;2023-05-14T01:12:27;100050.38;;;13.28;100.00
5522;BME280;2783;48.730;8.006;2023-05-14T01:17:24;100054.91;;;13.26;100.00
5522;BME280;2783;48.730;8.006;2023-05-14T01:19:50;100050.38;;;13.28;100.00
5522;BME280;2783;48.730;8.006;2023-05-14T01:22:16;100052.91;;;13.31;100.00
5522;BME280;2783;48.730;8.006;2023-05-14T01:24:42;100047.44;;;13.34;100.00
5522;BME280;2783;48.730;8.006;2023-05-14T01:29:39;100048.19;;;13.37;100.00
5522;BME280;2783;48.730;8.006;2023-05-14T01:32:07;100045.50;;;13.37;100.00
5522;BME280;2783;48.730;8.006;2023-05-14T01:34:34;100046.38;;;13.38;100.00
5522;BME280;2783;48.730;8.006;2023-05-14T01:37:00;100058.78;;;13.39;100.00
5522;BME280;2783;48.730;8.006;2023-05-14T01:39:25;100062.41;;;13.38;100.00
5522;BME280;2783;48.730;8.006;2023-05-14T01:41:51;100050.91;;;13.36;100.00
5522;BME280;2783;48.730;8.006;2023-05-14T01:44:17;100059.84;;;13.35;100.00
5522;BME280;2783;48.730;8.006;2023-05-14T01:46:43;100051.84;;;13.35;100.00
5522;BME280;2783;48.730;8.006;2023-05-14T01:49:08;100052.72;;;13.35;100.00
5522;BME280;2783;48.730;8.006;2023-05-14T01:51:33;100063.41;;;13.35;100.00
5522;BME280;2783;48.730;8.006;2023-05-14T01:53:58;100064.28;;;13.36;100.00
5522;BME280;2783;48.730;8.006;2023-05-14T01:56:24;100071.63;;;13.31;100.00
5522;BME280;2783;48.730;8.006;2023-05-14T01:58:49;100067.19;;;13.30;100.00
5522;BME280;2783;48.730;8.006;2023-05-14T02:01:15;100058.31;;;13.29;100.00
5522;BME280;2783;48.730;8.006;2023-05-14T02:03:40;100057.44;;;13.29;100.00
5522;BME280;2783;48.730;8.006;2023-05-14T02:06:05;100056.63;;;13.27;100.00
5522;BME280;2783;48.730;8.006;2023-05-14T02:08:31;100066.50;;;13.24;100.00
5522;BME280;2783;48.730;8.006;2023-05-14T02:10:56;100063.06;;;13.23;100.00
5522;BME280;2783;48.730;8.006;2023-05-14T02:13:21;100060.31;;;13.24;100.00
5522;BME280;2783;48.730;8.006;2023-05-14T02:15:46;100059.44;;;13.23;100.00
5522;BME280;2783;48.730;8.006;2023-05-14T02:18:12;100061.31;;;13.21;100.00
5522;BME280;2783;48.730;8.006;2023-05-14T02:20:37;100055.34;;;13.15;100.00
5522;BME280;2783;48.730;8.006;2023-05-14T02:23:02;100050.91;;;13.15;100.00
5522;BME280;2783;48.730;8.006;2023-05-14T02:25:28;100045.56;;;13.15;100.00
5522;BME280;2783;48.730;8.006;2023-05-14T02:27:53;100040.22;;;13.15;100.00
5522;BME280;2783;48.730;8.006;2023-05-14T02:30:18;100044.59;;;13.16;100.00
5522;BME280;2783;48.730;8.006;2023-05-14T02:32:43;100048.38;;;13.12;100.00
5522;BME280;2783;48.730;8.006;2023-05-14T02:35:09;100050.91;;;13.15;100.00
5522;BME280;2783;48.730;8.006;2023-05-14T02:37:34;100045.56;;;13.15;100.00
5522;BME280;2783;48.730;8.006;2023-05-14T02:39:59;100040.47;;;13.09;100.00
5522;BME280;2783;48.730;8.006;2023-05-14T02:42:25;100047.41;;;13.13;100.00
5522;BME280;2783;48.730;8.006;2023-05-14T02:44:51;100045.41;;;13.18;100.00
5522;BME280;2783;48.730;8.006;2023-05-14T02:47:16;100040.53;;;13.28;100.00
5522;BME280;2783;48.730;8.006;2023-05-14T02:49:41;100044.75;;;13.34;100.00
5522;BME280;2783;48.730;8.006;2023-05-14T02:52:06;100035.69;;;13.38;100.00
5522;BME280;2783;48.730;8.006;2023-05-14T02:54:32;100033.66;;;13.43;100.00
5522;BME280;2783;48.730;8.006;2023-05-14T02:56:57;100036.97;;;13.49;100.00
5522;BME280;2783;48.730;8.006;2023-05-14T02:59:23;100034.88;;;13.56;100.00
5522;BME280;2783;48.730;8.006;2023-05-14T03:01:48;100041.81;;;13.60;100.00
5522;BME280;2783;48.730;8.006;2023-05-14T03:04:14;100039.81;;;13.65;100.00
5522;BME280;2783;48.730;8.006;2023-05-14T03:06:39;100040.41;;;13.71;100.00
5522;BME280;2783;48.730;8.006;2023-05-14T03:09:05;100047.22;;;13.78;100.00
5522;BME280;2783;48.730;8.006;2023-05-14T03:11:30;100054.13;;;13.82;100.00
5522;BME280;2783;48.730;8.006;2023-05-14T03:13:55;100042.47;;;13.85;100.00
5522;BME280;2783;48.730;8.006;2023-05-14T03:16:21;100036.97;;;13.88;100.00
5522;BME280;2783;48.730;8.006;2023-05-14T03:18:46;100045.88;;;13.88;100.00
5522;BME280;2783;48.730;8.006;2023-05-14T03:21:11;100044.03;;;13.89;100.00
5522;BME280;2783;48.730;8.006;2023-05-14T03:23:37;100037.78;;;13.90;100.00
5522;BME280;2783;48.730;8.006;2023-05-14T03:26:02;100040.44;;;13.90;100.00
5522;BME280;2783;48.730;8.006;2023-05-14T03:28:28;100032.50;;;13.88;100.00
5522;BME280;2783;48.730;8.006;2023-05-14T03:30:54;100030.66;;;13.89;100.00
5522;BME280;2783;48.730;8.006;2023-05-14T03:33:19;100028.66;;;13.94;100.00
5522;BME280;2783;48.730;8.006;2023-05-14T03:35:45;100028.56;;;13.95;100.00
5522;BME280;2783;48.730;8.006;2023-05-14T03:38:10;100036.69;;;13.94;100.00
5522;BME280;2783;48.730;8.006;2023-05-14T03:40:35;100025.88;;;13.97;100.00
5522;BME280;2783;48.730;8.006;2023-05-14T03:43:01;100023.19;;;13.97;100.00
5522;BME280;2783;48.730;8.006;2023-05-14T03:45:26;100025.88;;;13.97;100.00
5522;BME280;2783;48.730;8.006;2023-05-14T03:47:52;100027.50;;;13.99;100.00
5522;BME280;2783;48.730;8.006;2023-05-14T03:50:18;100028.47;;;13.98;100.00
5522;BME280;2783;48.730;8.006;2023-05-14T03:52:43;100026.63;;;13.99;100.00
5522;BME280;2783;48.730;8.006;2023-05-14T03:55:09;100030.19;;;13.99;100.00
5522;BME280;2783;48.730;8.006;2023-05-14T03:57:35;100025.78;;;13.98;100.00
5522;BME280;2783;48.730;8.006;2023-05-14T04:00:00;100029.31;;;13.99;100.00
5522;BME280;2783;48.730;8.006;2023-05-14T04:02:26;100021.16;;;14.02;100.00
5522;BME280;2783;48.730;8.006;2023-05-14T04:04:51;100026.44;;;14.03;100.00
5522;BME280;2783;48.730;8.006;2023-05-14T04:07:16;100023.69;;;14.05;100.00
5522;BME280;2783;48.730;8.006;2023-05-14T04:09:42;100034.09;;;14.11;100.00
5522;BME280;2783;48.730;8.006;2023-05-14T04:12:07;100033.94;;;14.14;100.00
5522;BME280;2783;48.730;8.006;2023-05-14T04:14:33;100037.44;;;14.16;100.00
5522;BME280;2783;48.730;8.006;2023-05-14T04:16:58;100038.97;;;14.21;100.00
5522;BME280;2783;48.730;8.006;2023-05-14T04:19:23;100036.09;;;14.26;100.00
5522;BME280;2783;48.730;8.006;2023-05-14T04:21:49;100035.06;;;14.28;100.00
5522;BME280;2783;48.730;8.006;2023-05-14T04:24:14;100040.34;;;14.30;100.00
5522;BME280;2783;48.730;8.006;2023-05-14T04:26:40;100036.75;;;14.31;100.00
5522;BME280;2783;48.730;8.006;2023-05-14T04:29:06;100038.25;;;14.36;100.00
5522;BME280;2783;48.730;8.006;2023-05-14T04:31:31;100038.84;;;14.43;100.00
5522;BME280;2783;48.730;8.006;2023-05-14T04:33:57;100035.22;;;14.44;100.00
5522;BME280;2783;48.730;8.006;2023-05-14T04:36:22;100036.03;;;14.46;100.00
5522;BME280;2783;48.730;8.006;2023-05-14T04:38:47;100036.78;;;14.48;100.00
5522;BME280;2783;48.730;8.006;2023-05-14T04:41:13;100030.34;;;14.52;100.00
5522;BME280;2783;48.730;8.006;2023-05-14T04:43:38;100030.13;;;14.57;100.00
5522;BME280;2783;48.730;8.006;2023-05-14T04:46:04;100029.06;;;14.61;100.00
5522;BME280;2783;48.730;8.006;2023-05-14T04:48:29;99998.91;;;14.38;100.00
5522;BME280;2783;48.730;8.006;2023-05-14T04:50:54;100026.38;;;14.61;100.00
5522;BME280;2783;48.730;8.006;2023-05-14T04:53:20;100033.13;;;14.32;100.00
5522;BME280;2783;48.730;8.006;2023-05-14T04:55:45;100037.31;;;14.56;100.00
5522;BME280;2783;48.730;8.006;2023-05-14T04:58:10;100033.25;;;14.66;100.00
5522;BME280;2783;48.730;8.006;2023-05-14T05:00:36;100042.06;;;14.68;100.00
5522;BME280;2783;48.730;8.006;2023-05-14T05:03:01;100036.06;;;14.63;100.00
5522;BME280;2783;48.730;8.006;2023-05-14T05:05:27;100037.81;;;14.64;100.00
5522;BME280;2783;48.730;8.006;2023-05-14T05:07:52;100041.91;;;14.71;100.00
5522;BME280;2783;48.730;8.006;2023-05-14T05:10:17;100028.50;;;14.71;100.00
5522;BME280;2783;48.730;8.006;2023-05-14T05:12:43;100039.75;;;14.79;100.00
5522;BME280;2783;48.730;8.006;2023-05-14T05:15:08;100039.44;;;14.85;100.00
5522;BME280;2783;48.730;8.006;2023-05-14T05:17:33;100041.88;;;14.90;100.00
5522;BME280;2783;48.730;8.006;2023-05-14T05:19:59;100044.78;;;14.85;100.00
5522;BME280;2783;48.730;8.006;2023-05-14T05:22:24;100041.78;;;14.91;100.00
5522;BME280;2783;48.730;8.006;2023-05-14T05:24:50;100046.06;;;14.95;100.00
5522;BME280;2783;48.730;8.006;2023-05-14T05:27:15;100042.91;;;15.04;100.00
5522;BME280;2783;48.730;8.006;2023-05-14T05:29:40;100042.69;;;15.09;100.00
5522;BME280;2783;48.730;8.006;2023-05-14T05:32:05;100051.13;;;15.18;100.00
5522;BME280;2783;48.730;8.006;2023-05-14T05:34:31;100050.34;;;15.16;99.59
5522;BME280;2783;48.730;8.006;2023-05-14T05:36:56;100046.56;;;15.20;100.00
5522;BME280;2783;48.730;8.006;2023-05-14T05:39:21;100052.06;;;15.34;99.94
5522;BME280;2783;48.730;8.006;2023-05-14T05:41:47;100047.22;;;15.42;99.80
5522;BME280;2783;48.730;8.006;2023-05-14T05:44:12;100048.97;;;15.43;99.86
5522;BME280;2783;48.730;8.006;2023-05-14T05:46:37;100050.28;;;15.35;97.84
5522;BME280;2783;48.730;8.006;2023-05-14T05:49:03;100051.00;;;15.38;98.15
5522;BME280;2783;48.730;8.006;2023-05-14T05:51:28;100047.22;;;15.42;97.74
5522;BME280;2783;48.730;8.006;2023-05-14T05:53:54;100048.66;;;15.49;97.05
5522;BME280;2783;48.730;8.006;2023-05-14T05:56:19;100050.69;;;15.44;94.93
5522;BME280;2783;48.730;8.006;2023-05-14T05:58:45;100049.44;;;15.51;95.10
5522;BME280;2783;48.730;8.006;2023-05-14T06:01:10;100050.78;;;15.60;94.41
5522;BME280;2783;48.730;8.006;2023-05-14T06:03:35;100047.84;;;15.64;93.64
5522;BME280;2783;48.730;8.006;2023-05-14T06:06:01;100049.09;;;15.74;93.44
5522;BME280;2783;48.730;8.006;2023-05-14T06:08:26;100042.44;;;15.81;92.98
5522;BME280;2783;48.730;8.006;2023-05-14T06:10:52;100053.47;;;15.93;93.08
5522;BME280;2783;48.730;8.006;2023-05-14T06:13:17;100047.59;;;16.02;92.47
5522;BME280;2783;48.730;8.006;2023-05-14T06:15:42;100045.91;;;16.16;90.90
5522;BME280;2783;48.730;8.006;2023-05-14T06:18:07;100042.38;;;16.31;90.97
5522;BME280;2783;48.730;8.006;2023-05-14T06:20:33;100048.63;;;16.32;89.46
5522;BME280;2783;48.730;8.006;2023-05-14T06:22:58;100050.13;;;16.53;89.15
5522;BME280;2783;48.730;8.006;2023-05-14T06:25:23;100046.59;;;16.68;87.98
5522;BME280;2783;48.730;8.006;2023-05-14T06:27:48;100038.00;;;16.77;86.75
5522;BME280;2783;48.730;8.006;2023-05-14T06:30:14;100048.41;;;16.83;85.77
5522;BME280;2783;48.730;8.006;2023-05-14T06:32:39;100036.59;;;17.01;85.58
5522;BME280;2783;48.730;8.006;2023-05-14T06:35:04;100038.72;;;17.40;85.23
5522;BME280;2783;48.730;8.006;2023-05-14T06:37:30;100036.94;;;17.84;83.74
5522;BME280;2783;48.730;8.006;2023-05-14T06:39:55;100035.88;;;18.28;79.58
5522;BME280;2783;48.730;8.006;2023-05-14T06:42:20;100034.28;;;18.67;76.85
5522;BME280;2783;48.730;8.006;2023-05-14T06:44:46;100032.59;;;18.92;72.54
5522;BME280;2783;48.730;8.006;2023-05-14T06:47:11;100036.09;;;19.07;71.56
5522;BME280;2783;48.730;8.006;2023-05-14T06:49:36;100032.25;;;19.11;71.84
5522;BME280;2783;48.730;8.006;2023-05-14T06:52:01;100034.63;;;19.15;71.19
5522;BME280;2783;48.730;8.006;2023-05-14T06:54:27;100041.47;;;19.07;71.30
5522;BME280;2783;48.730;8.006;2023-05-14T06:56:53;100032.47;;;19.20;72.18
5522;BME280;2783;48.730;8.006;2023-05-14T06:59:18;100038.72;;;19.21;71.12
5522;BME280;2783;48.730;8.006;2023-05-14T07:01:43;100038.91;;;19.32;70.11
5522;BME280;2783;48.730;8.006;2023-05-14T07:04:08;100041.00;;;19.66;69.56
5522;BME280;2783;48.730;8.006;2023-05-14T07:06:34;100038.22;;;19.80;68.47
5522;BME280;2783;48.730;8.006;2023-05-14T07:08:59;100037.78;;;19.86;69.68
5522;BME280;2783;48.730;8.006;2023-05-14T07:11:25;100030.25;;;20.16;68.84
5522;BME280;2783;48.730;8.006;2023-05-14T07:13:50;100025.66;;;20.42;67.02
5522;BME280;2783;48.730;8.006;2023-05-14T07:16:16;100028.78;;;20.48;65.63
5522;BME280;2783;48.730;8.006;2023-05-14T07:18:41;100021.31;;;20.52;65.38
5522;BME280;2783;48.730;8.006;2023-05-14T07:21:06;100031.25;;;20.51;65.03
5522;BME280;2783;48.730;8.006;2023-05-14T07:23:32;100023.19;;;20.75;62.40
5522;BME280;2783;48.730;8.006;2023-05-14T07:25:57;100021.13;;;21.15;64.56
5522;BME280;2783;48.730;8.006;2023-05-14T07:28:22;100024.66;;;21.39;60.01
5522;BME280;2783;48.730;8.006;2023-05-14T07:30:48;100023.78;;;21.73;60.63
5522;BME280;2783;48.730;8.006;2023-05-14T07:33:13;100017.91;;;22.01;58.24
5522;BME280;2783;48.730;8.006;2023-05-14T07:35:38;100024.59;;;22.08;56.14
5522;BME280;2783;48.730;8.006;2023-05-14T07:38:04;100019.66;;;22.24;55.56
5522;BME280;2783;48.730;8.006;2023-05-14T07:40:30;100017.19;;;22.21;57.22
5522;BME280;2783;48.730;8.006;2023-05-14T07:42:55;100018.94;;;22.33;58.29
5522;BME280;2783;48.730;8.006;2023-05-14T07:45:20;100016.34;;;22.54;56.42
5522;BME280;2783;48.730;8.006;2023-05-14T07:47:46;100015.66;;;22.94;54.42
5522;BME280;2783;48.730;8.006;2023-05-14T07:50:15;100014.47;;;23.19;53.53
5522;BME280;2783;48.730;8.006;2023-05-14T07:52:41;100016.63;;;23.36;51.89
5522;BME280;2783;48.730;8.006;2023-05-14T07:55:06;100017.06;;;23.52;53.58
5522;BME280;2783;48.730;8.006;2023-05-14T07:57:32;100018.16;;;23.61;52.85
5522;BME280;2783;48.730;8.006;2023-05-14T07:59:57;100014.22;;;23.54;50.37
5522;BME280;2783;48.730;8.006;2023-05-14T08:02:22;100024.47;;;23.71;50.80
5522;BME280;2783;48.730;8.006;2023-05-14T08:04:48;100008.91;;;23.93;51.30
5522;BME280;2783;48.730;8.006;2023-05-14T08:07:13;100004.50;;;24.22;49.33
5522;BME280;2783;48.730;8.006;2023-05-14T08:09:38;100006.75;;;24.38;49.64
5522;BME280;2783;48.730;8.006;2023-05-14T08:12:04;100016.16;;;24.34;48.70
5522;BME280;2783;48.730;8.006;2023-05-14T08:14:30;100011.38;;;24.56;49.56
5522;BME280;2783;48.730;8.006;2023-05-14T08:16:55;100002.22;;;24.57;47.67
5522;BME280;2783;48.730;8.006;2023-05-14T08:19:21;100002.00;;;24.80;49.21
5522;BME280;2783;48.730;8.006;2023-05-14T08:21:46;99995.59;;;24.90;49.37
5522;BME280;2783;48.730;8.006;2023-05-14T08:24:11;99997.19;;;25.12;46.10
5522;BME280;2783;48.730;8.006;2023-05-14T08:26:37;99996.53;;;25.38;46.73
5522;BME280;2783;48.730;8.006;2023-05-14T08:29:05;100000.91;;;25.01;46.58
5522;BME280;2783;48.730;8.006;2023-05-14T08:31:30;100004.03;;;24.78;45.74
5522;BME280;2783;48.730;8.006;2023-05-14T08:33:55;99998.91;;;25.03;46.05
5522;BME280;2783;48.730;8.006;2023-05-14T08:36:20;99992.00;;;24.99;45.52
5522;BME280;2783;48.730;8.006;2023-05-14T08:38:46;99996.34;;;25.30;45.53
5522;BME280;2783;48.730;8.006;2023-05-14T08:41:12;99990.31;;;25.17;45.10
5522;BME280;2783;48.730;8.006;2023-05-14T08:46:19;99992.59;;;25.79;43.32
5522;BME280;2783;48.730;8.006;2023-05-14T08:48:47;99992.88;;;25.85;43.13
5522;BME280;2783;48.730;8.006;2023-05-14T08:51:14;99990.13;;;25.85;44.74
5522;BME280;2783;48.730;8.006;2023-05-14T08:53:39;99975.94;;;25.82;44.48
5522;BME280;2783;48.730;8.006;2023-05-14T08:56:05;99983.84;;;25.75;44.63
5522;BME280;2783;48.730;8.006;2023-05-14T08:58:31;99984.94;;;26.11;43.15
5522;BME280;2783;48.730;8.006;2023-05-14T09:00:56;99988.63;;;26.20;42.36
5522;BME280;2783;48.730;8.006;2023-05-14T09:03:21;99977.44;;;26.50;41.69
5522;BME280;2783;48.730;8.006;2023-05-14T09:05:47;99977.31;;;26.78;42.24
5522;BME280;2783;48.730;8.006;2023-05-14T09:08:13;99983.09;;;26.75;42.47
5522;BME280;2783;48.730;8.006;2023-05-14T09:10:38;99983.69;;;26.69;41.02
5522;BME280;2783;48.730;8.006;2023-05-14T09:13:04;99973.88;;;26.76;42.16
5522;BME280;2783;48.730;8.006;2023-05-14T09:15:30;99971.50;;;27.26;42.97
5522;BME280;2783;48.730;8.006;2023-05-14T09:17:56;99967.19;;;27.23;41.18
5522;BME280;2783;48.730;8.006;2023-05-14T09:20:21;99966.41;;;27.13;41.52
5522;BME280;2783;48.730;8.006;2023-05-14T09:22:51;99968.00;;;26.98;41.49
5522;BME280;2783;48.730;8.006;2023-05-14T09:25:16;99962.84;;;27.13;40.78
5522;BME280;2783;48.730;8.006;2023-05-14T09:27:41;99968.75;;;27.08;40.17
5522;BME280;2783;48.730;8.006;2023-05-14T09:30:11;99963.84;;;27.12;42.45
5522;BME280;2783;48.730;8.006;2023-05-14T09:32:37;99969.19;;;27.31;38.23
5522;BME280;2783;48.730;8.006;2023-05-14T09:35:12;99955.84;;;27.28;39.91
5522;BME280;2783;48.730;8.006;2023-05-14T09:37:43;99947.56;;;27.63;39.08
5522;BME280;2783;48.730;8.006;2023-05-14T09:40:09;99949.00;;;27.67;37.49
5522;BME280;2783;48.730;8.006;2023-05-14T09:42:34;99949.09;;;27.83;38.11
5522;BME280;2783;48.730;8.006;2023-05-14T09:45:00;99955.38;;;28.01;38.60
5522;BME280;2783;48.730;8.006;2023-05-14T09:47:25;99955.22;;;27.77;38.80
5522;BME280;2783;48.730;8.006;2023-05-14T09:49:51;99952.94;;;27.47;39.45
5522;BME280;2783;48.730;8.006;2023-05-14T09:52:17;99949.59;;;27.61;38.79
5522;BME280;2783;48.730;8.006;2023-05-14T09:54:43;99941.75;;;27.84;38.73
5522;BME280;2783;48.730;8.006;2023-05-14T09:57:08;99943.09;;;27.80;37.74
5522;BME280;2783;48.730;8.006;2023-05-14T09:59:34;99948.06;;;28.02;38.49
5522;BME280;2783;48.730;8.006;2023-05-14T10:01:59;99945.63;;;28.32;41.15
5522;BME280;2783;48.730;8.006;2023-05-14T10:04:26;99940.72;;;27.85;36.77
5522;BME280;2783;48.730;8.006;2023-05-14T10:06:52;99946.53;;;27.82;40.83
5522;BME280;2783;48.730;8.006;2023-05-14T10:09:18;99942.09;;;28.06;39.92
5522;BME280;2783;48.730;8.006;2023-05-14T10:11:47;99939.03;;;28.09;38.11
5522;BME280;2783;48.730;8.006;2023-05-14T10:14:20;99941.41;;;28.38;36.96
5522;BME280;2783;48.730;8.006;2023-05-14T10:16:49;99929.88;;;28.26;36.92
5522;BME280;2783;48.730;8.006;2023-05-14T10:19:16;99933.88;;;28.06;37.49
5522;BME280;2783;48.730;8.006;2023-05-14T10:21:43;99936.91;;;27.78;36.89
5522;BME280;2783;48.730;8.006;2023-05-14T10:24:09;99927.44;;;28.15;37.48
5522;BME280;2783;48.730;8.006;2023-05-14T10:26:37;99937.47;;;28.48;37.22
5522;BME280;2783;48.730;8.006;2023-05-14T10:29:03;99929.28;;;28.48;40.54
5522;BME280;2783;48.730;8.006;2023-05-14T10:37:00;99921.69;;;28.68;35.24
5522;BME280;2783;48.730;8.006;2023-05-14T10:42:07;99911.88;;;28.16;38.27
5522;BME280;2783;48.730;8.006;2023-05-14T10:44:32;99915.75;;;28.47;38.35
5522;BME280;2783;48.730;8.006;2023-05-14T10:46:59;99900.94;;;28.58;36.97
5522;BME280;2783;48.730;8.006;2023-05-14T10:49:25;99904.59;;;28.82;36.80
5522;BME280;2783;48.730;8.006;2023-05-14T10:51:51;99900.00;;;28.99;37.53
5522;BME280;2783;48.730;8.006;2023-05-14T10:54:17;99895.56;;;28.98;36.43
5522;BME280;2783;48.730;8.006;2023-05-14T10:56:44;99894.88;;;29.04;37.05
5522;BME280;2783;48.730;8.006;2023-05-14T10:59:09;99885.84;;;29.35;37.75
5522;BME280;2783;48.730;8.006;2023-05-14T11:01:35;99894.72;;;29.29;35.80
5522;BME280;2783;48.730;8.006;2023-05-14T11:04:00;99893.84;;;29.69;35.07
5522;BME280;2783;48.730;8.006;2023-05-14T11:06:27;99882.81;;;30.01;37.09
5522;BME280;2783;48.730;8.006;2023-05-14T11:08:53;99886.13;;;30.35;36.50
5522;BME280;2783;48.730;8.006;2023-05-14T11:11:18;99881.41;;;30.05;33.88
5522;BME280;2783;48.730;8.006;2023-05-14T11:13:44;99880.03;;;30.09;35.50
5522;BME280;2783;48.730;8.006;2023-05-14T11:16:10;99880.84;;;29.55;35.41
5522;BME280;2783;48.730;8.006;2023-05-14T11:18:35;99879.34;;;29.20;34.53
5522;BME280;2783;48.730;8.006;2023-05-14T11:21:02;99878.97;;;29.55;37.69
5522;BME280;2783;48.730;8.006;2023-05-14T11:23:27;99885.31;;;30.27;36.13
5522;BME280;2783;48.730;8.006;2023-05-14T11:25:53;99873.22;;;30.44;34.09
5522;BME280;2783;48.730;8.006;2023-05-14T11:28:22;99875.00;;;30.59;33.73
5522;BME280;2783;48.730;8.006;2023-05-14T11:30:48;99877.25;;;30.17;36.64
5522;BME280;2783;48.730;8.006;2023-05-14T11:33:13;99877.22;;;29.87;33.17
5522;BME280;2783;48.730;8.006;2023-05-14T11:35:39;99878.63;;;30.29;34.68
5522;BME280;2783;48.730;8.006;2023-05-14T11:38:06;99879.81;;;30.19;33.73
5522;BME280;2783;48.730;8.006;2023-05-14T11:40:37;99875.88;;;30.29;33.56
5522;BME280;2783;48.730;8.006;2023-05-14T11:43:02;99872.75;;;29.86;33.65
5522;BME280;2783;48.730;8.006;2023-05-14T11:45:27;99874.91;;;30.06;34.00
5522;BME280;2783;48.730;8.006;2023-05-14T11:47:57;99864.31;;;30.03;33.70
5522;BME280;2783;48.730;8.006;2023-05-14T11:50:22;99863.00;;;30.22;33.27
5522;BME280;2783;48.730;8.006;2023-05-14T11:52:47;99854.44;;;30.55;32.00
5522;BME280;2783;48.730;8.006;2023-05-14T11:55:14;99852.50;;;30.64;33.96
5522;BME280;2783;48.730;8.006;2023-05-14T11:57:40;99851.75;;;30.47;35.02
5522;BME280;2783;48.730;8.006;2023-05-14T12:00:09;99855.31;;;30.56;33.22
5522;BME280;2783;48.730;8.006;2023-05-14T12:02:37;99852.28;;;30.73;32.32
5522;BME280;2783;48.730;8.006;2023-05-14T12:05:03;99853.91;;;30.91;30.78
5522;BME280;2783;48.730;8.006;2023-05-14T12:07:31;99855.22;;;30.95;32.50
5522;BME280;2783;48.730;8.006;2023-05-14T12:09:59;99842.53;;;30.40;33.62
5522;BME280;2783;48.730;8.006;2023-05-14T12:12:24;99844.03;;;30.73;32.76
5522;BME280;2783;48.730;8.006;2023-05-14T12:14:50;99829.38;;;30.58;34.68
5522;BME280;2783;48.730;8.006;2023-05-14T12:17:17;99837.97;;;30.55;35.42
5522;BME280;2783;48.730;8.006;2023-05-14T12:19:43;99848.69;;;30.42;34.17
5522;BME280;2783;48.730;8.006;2023-05-14T12:22:12;99829.44;;;30.50;31.84
5522;BME280;2783;48.730;8.006;2023-05-14T12:24:39;99836.81;;;30.80;34.92
5522;BME280;2783;48.730;8.006;2023-05-14T12:27:05;99831.63;;;30.85;31.94
5522;BME280;2783;48.730;8.006;2023-05-14T12:29:34;99817.88;;;30.85;32.69
5522;BME280;2783;48.730;8.006;2023-05-14T12:31:59;99815.56;;;30.66;32.27
5522;BME280;2783;48.730;8.006;2023-05-14T12:34:24;99824.88;;;30.65;33.23
5522;BME280;2783;48.730;8.006;2023-05-14T12:36:50;99804.91;;;31.17;32.58
5522;BME280;2783;48.730;8.006;2023-05-14T12:39:16;99813.22;;;31.46;30.25
5522;BME280;2783;48.730;8.006;2023-05-14T12:41:41;99806.81;;;31.31;31.02
5522;BME280;2783;48.730;8.006;2023-05-14T12:44:06;99809.53;;;31.16;29.87
5522;BME280;2783;48.730;8.006;2023-05-14T12:46:32;99802.63;;;30.83;30.77
5522;BME280;2783;48.730;8.006;2023-05-14T12:48:58;99796.94;;;30.84;34.08
5522;BME280;2783;48.730;8.006;2023-05-14T12:51:23;99793.41;;;30.99;32.31
5522;BME280;2783;48.730;8.006;2023-05-14T12:53:49;99799.13;;;30.89;31.75
5522;BME280;2783;48.730;8.006;2023-05-14T12:56:15;99792.19;;;31.16;33.05
5522;BME280;2783;48.730;8.006;2023-05-14T12:58:41;99787.91;;;30.99;32.10
5522;BME280;2783;48.730;8.006;2023-05-14T13:01:06;99792.75;;;31.11;30.85
5522;BME280;2783;48.730;8.006;2023-05-14T13:03:32;99803.47;;;30.61;30.80
5522;BME280;2783;48.730;8.006;2023-05-14T13:05:57;99792.09;;;30.03;32.72
5522;BME280;2783;48.730;8.006;2023-05-14T13:08:23;99792.56;;;30.14;32.42
5522;BME280;2783;48.730;8.006;2023-05-14T13:10:51;99781.84;;;29.97;33.71
5522;BME280;2783;48.730;8.006;2023-05-14T13:13:17;99782.13;;;29.71;33.76
5522;BME280;2783;48.730;8.006;2023-05-14T13:15:42;99786.41;;;29.57;33.73
5522;BME280;2783;48.730;8.006;2023-05-14T13:18:08;99782.34;;;28.41;35.22
5522;BME280;2783;48.730;8.006;2023-05-14T13:20:33;99780.19;;;27.36;36.18
5522;BME280;2783;48.730;8.006;2023-05-14T13:22:58;99779.16;;;26.68;39.20